Time;durP1;ratioP1;P1;durP2;ratioP2;P2;SDS_P1;SDS_P2;PMS_P1;PMS_P2;Temp;Humidity;BMP_temperature;BMP_pressure;BME280_temperature;BME280_humidity;BME280_pressure;Samples;Min_cycle;Max_cycle;Signal;HPM_P1;HPM_P2
2023/04/18 00:01:44;;;;;;;;;;;19.60;40.60;;;;;;5078748;28;19929;-62
2023/04/18 00:04:11;;;;;;;;;;;19.60;40.60;;;;;;5069747;28;19924;-62
2023/04/18 00:06:38;;;;;;;;;;;19.60;40.60;;;;;;5071754;28;19924;-62
2023/04/18 00:09:05;;;;;;;;;;;19.60;40.60;;;;;;5077734;28;19920;-62
2023/04/18 00:11:34;;;;;;;;;;;19.60;40.60;;;;;;5074150;28;20320;-62
2023/04/18 00:14:02;;;;;;;;;;;19.60;40.60;;;;;;5078777;28;19974;-62
2023/04/18 00:16:28;;;;;;;;;;;19.60;40.60;;;;;;5070971;28;19931;-62
2023/04/18 00:18:56;;;;;;;;;;;19.60;40.60;;;;;;5074394;28;19920;-62
2023/04/18 00:21:24;;;;;;;;;;;19.60;40.70;;;;;;5063824;28;20001;-62
2023/04/18 00:23:51;;;;;;;;;;;19.60;40.70;;;;;;5072171;28;20288;-62
2023/04/18 00:26:17;;;;;;;;;;;19.60;40.60;;;;;;5068544;28;19921;-62
2023/04/18 00:28:45;;;;;;;;;;;19.60;40.70;;;;;;5064518;28;19923;-62
2023/04/18 00:31:12;;;;;;;;;;;19.60;40.70;;;;;;5090851;28;19924;-62
2023/04/18 00:33:39;;;;;;;;;;;19.60;40.70;;;;;;5072324;28;19920;-62
2023/04/18 00:36:06;;;;;;;;;;;19.60;40.70;;;;;;5074781;28;20011;-62
2023/04/18 00:38:33;;;;;;;;;;;19.60;40.70;;;;;;5085582;28;19927;-62
2023/04/18 00:41:00;;;;;;;;;;;19.60;40.70;;;;;;5061505;28;19924;-62
2023/04/18 00:43:27;;;;;;;;;;;19.60;40.70;;;;;;5099242;28;19920;-62
2023/04/18 00:45:55;;;;;;;;;;;19.60;40.70;;;;;;5073539;28;19965;-62
2023/04/18 00:48:22;;;;;;;;;;;19.60;40.70;;;;;;5089387;28;20175;-62
2023/04/18 00:50:49;;;;;;;;;;;19.60;40.70;;;;;;5065333;28;19925;-62
2023/04/18 00:53:16;;;;;;;;;;;19.60;40.70;;;;;;5061258;28;19924;-62
2023/04/18 00:55:42;;;;;;;;;;;19.60;40.70;;;;;;5089904;28;19920;-62
2023/04/18 00:58:09;;;;;;;;;;;19.60;40.70;;;;;;5077861;28;19924;-60
2023/04/18 01:00:36;;;;;;;;;;;19.60;40.70;;;;;;5070549;28;20358;-60
2023/04/18 01:03:05;;;;;;;;;;;19.60;40.70;;;;;;5087544;28;20427;-60
2023/04/18 01:05:32;;;;;;;;;;;19.60;40.80;;;;;;5053380;28;19947;-60
2023/04/18 01:07:59;;;;;;;;;;;19.60;40.70;;;;;;5061009;28;19954;-61
2023/04/18 01:10:27;;;;;;;;;;;19.60;40.70;;;;;;5054878;28;19928;-61
2023/04/18 01:13:08;;;;;;;;;;;19.60;40.80;;;;;;5068600;28;19924;-61
2023/04/18 01:15:35;;;;;;;;;;;19.60;40.80;;;;;;5052740;28;19924;-61
2023/04/18 01:18:03;;;;;;;;;;;19.60;40.80;;;;;;5071299;28;19935;-61
2023/04/18 01:20:31;;;;;;;;;;;19.60;40.80;;;;;;5072158;28;19925;-61
2023/04/18 01:22:58;;;;;;;;;;;19.60;40.80;;;;;;5079709;28;19921;-61
2023/04/18 01:25:26;;;;;;;;;;;19.60;40.80;;;;;;5069399;28;19925;-61
2023/04/18 01:27:54;;;;;;;;;;;19.60;40.80;;;;;;5069894;28;20343;-61
2023/04/18 01:30:21;;;;;;;;;;;19.60;40.80;;;;;;5052049;28;20018;-61
2023/04/18 01:32:48;;;;;;;;;;;19.60;40.90;;;;;;5068459;28;19974;-62
2023/04/18 01:35:16;;;;;;;;;;;19.60;40.80;;;;;;5070756;28;19932;-61
2023/04/18 01:37:43;;;;;;;;;;;19.60;40.80;;;;;;5087398;28;20342;-61
2023/04/18 01:40:10;;;;;;;;;;;19.60;40.80;;;;;;5089310;28;20301;-61
2023/04/18 01:42:39;;;;;;;;;;;19.60;40.80;;;;;;5071947;28;19927;-61
2023/04/18 01:45:06;;;;;;;;;;;19.60;40.90;;;;;;5085424;28;19967;-61
2023/04/18 01:47:33;;;;;;;;;;;19.60;40.80;;;;;;5071890;28;19924;-62
2023/04/18 01:49:59;;;;;;;;;;;19.60;40.90;;;;;;5082435;28;20332;-61
2023/04/18 01:52:26;;;;;;;;;;;19.60;40.80;;;;;;5072373;28;19927;-61
2023/04/18 01:54:53;;;;;;;;;;;19.60;40.80;;;;;;5089894;28;19920;-61
2023/04/18 01:57:20;;;;;;;;;;;19.60;40.80;;;;;;5071990;28;19920;-61
2023/04/18 01:59:48;;;;;;;;;;;19.60;40.90;;;;;;5083599;28;19974;-61
2023/04/18 02:02:15;;;;;;;;;;;19.60;40.90;;;;;;5051890;28;19920;-61
2023/04/18 02:04:41;;;;;;;;;;;19.60;40.90;;;;;;5051622;28;19924;-61
2023/04/18 02:07:08;;;;;;;;;;;19.60;40.80;;;;;;5060625;28;20005;-61
2023/04/18 02:09:35;;;;;;;;;;;19.60;40.90;;;;;;5070672;28;19950;-61
2023/04/18 02:12:02;;;;;;;;;;;19.60;40.90;;;;;;5088792;28;19970;-61
2023/04/18 02:14:31;;;;;;;;;;;19.60;40.90;;;;;;5076770;28;19924;-61
2023/04/18 02:16:59;;;;;;;;;;;19.60;40.90;;;;;;5057996;28;19971;-62
2023/04/18 02:19:27;;;;;;;;;;;19.60;40.90;;;;;;5087861;28;19920;-62
2023/04/18 02:21:53;;;;;;;;;;;19.60;40.90;;;;;;5077952;28;19943;-61
2023/04/18 02:24:20;;;;;;;;;;;19.60;40.90;;;;;;5088323;28;20133;-61
2023/04/18 02:26:47;;;;;;;;;;;19.60;40.90;;;;;;5062316;28;20329;-62
2023/04/18 02:29:14;;;;;;;;;;;19.60;40.90;;;;;;5096108;28;19923;-62
2023/04/18 02:31:41;;;;;;;;;;;19.60;40.90;;;;;;5064653;28;19920;-61
2023/04/18 02:34:09;;;;;;;;;;;19.60;40.90;;;;;;5085661;28;19920;-61
2023/04/18 02:36:36;;;;;;;;;;;19.60;40.90;;;;;;5054337;28;19920;-62
2023/04/18 02:39:03;;;;;;;;;;;19.60;40.90;;;;;;5061005;28;19974;-61
2023/04/18 02:41:30;;;;;;;;;;;19.60;40.90;;;;;;5052023;28;19920;-61
2023/04/18 02:43:57;;;;;;;;;;;19.60;40.90;;;;;;5062563;28;19932;-62
2023/04/18 02:46:23;;;;;;;;;;;19.60;40.90;;;;;;5068045;28;19924;-61
2023/04/18 02:48:50;;;;;;;;;;;19.60;40.90;;;;;;5054862;28;19924;-61
2023/04/18 02:51:18;;;;;;;;;;;19.60;41.00;;;;;;5071049;28;19977;-61
2023/04/18 02:53:45;;;;;;;;;;;19.60;40.90;;;;;;5089019;28;19932;-61
2023/04/18 02:56:13;;;;;;;;;;;19.60;40.90;;;;;;5073345;28;20420;-62
2023/04/18 02:58:40;;;;;;;;;;;19.60;40.90;;;;;;5055012;28;20393;-62
2023/04/18 03:01:06;;;;;;;;;;;19.60;40.90;;;;;;5058007;28;19980;-61
2023/04/18 03:03:33;;;;;;;;;;;19.60;40.90;;;;;;5087112;28;19920;-61
2023/04/18 03:06:00;;;;;;;;;;;19.60;41.00;;;;;;5073390;28;19920;-61
2023/04/18 03:08:28;;;;;;;;;;;19.60;41.00;;;;;;5055434;28;19920;-62
2023/04/18 03:10:55;;;;;;;;;;;19.60;41.00;;;;;;5055461;28;19994;-62
2023/04/18 03:13:22;;;;;;;;;;;19.60;41.00;;;;;;5077609;28;19924;-61
2023/04/18 03:15:49;;;;;;;;;;;19.60;41.00;;;;;;5060091;28;19936;-62
2023/04/18 03:18:16;;;;;;;;;;;19.60;41.60;;;;;;5093274;28;19926;-62
2023/04/18 03:20:42;;;;;;;;;;;19.60;41.00;;;;;;5074553;28;19978;-62
2023/04/18 03:23:09;;;;;;;;;;;19.60;41.00;;;;;;5075216;28;20334;-61
2023/04/18 03:25:37;;;;;;;;;;;19.60;41.00;;;;;;5093005;28;19973;-62
2023/04/18 03:28:04;;;;;;;;;;;19.60;41.00;;;;;;5074485;28;19986;-61
2023/04/18 03:30:31;;;;;;;;;;;19.60;41.00;;;;;;5069542;28;19924;-62
2023/04/18 03:32:58;;;;;;;;;;;19.60;41.00;;;;;;5074493;28;19920;-62
2023/04/18 03:35:24;;;;;;;;;;;19.60;41.00;;;;;;5092075;28;19966;-61
2023/04/18 03:37:51;;;;;;;;;;;19.60;41.00;;;;;;5074730;28;19920;-61
2023/04/18 03:40:18;;;;;;;;;;;19.60;41.00;;;;;;5071234;28;19965;-61
2023/04/18 03:42:59;;;;;;;;;;;19.60;41.00;;;;;;5074315;28;20021;-62
2023/04/18 03:45:26;;;;;;;;;;;19.60;41.00;;;;;;5064743;28;19920;-62
2023/04/18 03:47:53;;;;;;;;;;;19.60;41.00;;;;;;5073515;28;19928;-61
2023/04/18 03:50:19;;;;;;;;;;;19.60;41.00;;;;;;5074562;28;19925;-62
2023/04/18 03:52:46;;;;;;;;;;;19.60;41.10;;;;;;5074636;28;19924;-62
2023/04/18 03:55:13;;;;;;;;;;;19.60;41.10;;;;;;5070162;28;20425;-62
2023/04/18 03:57:40;;;;;;;;;;;19.60;41.00;;;;;;5108119;28;20019;-62
2023/04/18 04:00:11;;;;;;;;;;;19.60;41.00;;;;;;5090460;28;19924;-62
2023/04/18 04:02:38;;;;;;;;;;;19.60;41.10;;;;;;5053785;28;20351;-62
2023/04/18 04:05:05;;;;;;;;;;;19.60;41.10;;;;;;5085054;28;19946;-62
2023/04/18 04:07:31;;;;;;;;;;;19.60;41.10;;;;;;5092355;28;19920;-62
2023/04/18 04:09:58;;;;;;;;;;;19.60;41.10;;;;;;5073169;28;19931;-62
2023/04/18 04:12:28;;;;;;;;;;;19.60;41.10;;;;;;5090938;28;20372;-62
2023/04/18 04:14:54;;;;;;;;;;;19.60;41.10;;;;;;5063223;28;19927;-62
2023/04/18 04:17:23;;;;;;;;;;;19.60;41.10;;;;;;5070156;28;19931;-63
2023/04/18 04:19:50;;;;;;;;;;;19.60;41.10;;;;;;5089679;28;19928;-63
2023/04/18 04:22:17;;;;;;;;;;;19.60;41.10;;;;;;5074077;28;20023;-62
2023/04/18 04:24:45;;;;;;;;;;;19.60;41.10;;;;;;5091660;28;19954;-62
2023/04/18 04:27:12;;;;;;;;;;;19.60;41.10;;;;;;5090205;28;20019;-62
2023/04/18 04:29:39;;;;;;;;;;;19.60;41.10;;;;;;5092205;28;19993;-62
2023/04/18 04:32:06;;;;;;;;;;;19.60;41.10;;;;;;5089012;28;20277;-62
2023/04/18 04:34:35;;;;;;;;;;;19.60;41.10;;;;;;5086989;28;20007;-62
2023/04/18 04:37:02;;;;;;;;;;;19.60;41.10;;;;;;5067004;28;20079;-62
2023/04/18 04:39:29;;;;;;;;;;;19.60;41.10;;;;;;5090857;28;19927;-62
2023/04/18 04:41:56;;;;;;;;;;;19.60;41.10;;;;;;5090591;28;19920;-62
2023/04/18 04:44:25;;;;;;;;;;;19.60;41.10;;;;;;5067952;28;19925;-62
2023/04/18 04:46:53;;;;;;;;;;;19.60;41.10;;;;;;5057335;28;19920;-62
2023/04/18 04:49:20;;;;;;;;;;;19.60;41.10;;;;;;5072583;28;19927;-62
2023/04/18 04:52:08;;;;;;;;;;;19.60;41.10;;;;;;5084882;28;19920;-61
2023/04/18 04:54:35;;;;;;;;;;;19.60;41.10;;;;;;5064600;28;19955;-61
2023/04/18 04:57:03;;;;;;;;;;;19.60;41.10;;;;;;5066107;28;19928;-61
2023/04/18 04:59:30;;;;;;;;;;;19.60;41.10;;;;;;5062968;28;19920;-61
2023/04/18 05:01:57;;;;;;;;;;;19.60;41.20;;;;;;5063238;28;19926;-61
2023/04/18 05:04:24;;;;;;;;;;;19.60;41.10;;;;;;5063742;28;19924;-61
2023/04/18 05:06:52;;;;;;;;;;;19.60;41.20;;;;;;5084624;28;19920;-62
2023/04/18 05:09:19;;;;;;;;;;;19.60;41.20;;;;;;5084489;28;19964;-62
2023/04/18 05:11:48;;;;;;;;;;;19.60;41.10;;;;;;5079999;28;19921;-62
2023/04/18 05:14:15;;;;;;;;;;;19.60;41.10;;;;;;5061560;28;19928;-62
2023/04/18 05:16:42;;;;;;;;;;;19.60;41.10;;;;;;5062415;28;20019;-62
2023/04/18 05:19:09;;;;;;;;;;;19.60;41.20;;;;;;5062303;28;19921;-62
2023/04/18 05:21:35;;;;;;;;;;;19.60;41.10;;;;;;5078144;28;19921;-62
2023/04/18 05:24:03;;;;;;;;;;;19.60;41.20;;;;;;5056090;28;20446;-62
2023/04/18 05:26:30;;;;;;;;;;;19.60;41.20;;;;;;5061726;28;20359;-60
2023/04/18 05:28:57;;;;;;;;;;;19.60;41.20;;;;;;5080834;28;19920;-61
2023/04/18 05:31:25;;;;;;;;;;;19.60;41.20;;;;;;5089361;28;19931;-61
2023/04/18 05:33:52;;;;;;;;;;;19.60;41.20;;;;;;5072057;28;20011;-61
2023/04/18 05:36:19;;;;;;;;;;;19.60;41.20;;;;;;5089279;28;19927;-61
2023/04/18 05:38:45;;;;;;;;;;;19.60;41.20;;;;;;5082167;28;19931;-61
2023/04/18 05:41:13;;;;;;;;;;;19.60;41.20;;;;;;5083103;28;20363;-61
2023/04/18 05:43:40;;;;;;;;;;;19.60;41.20;;;;;;5074406;28;19920;-61
2023/04/18 05:46:07;;;;;;;;;;;19.60;41.20;;;;;;5071987;28;19923;-61
2023/04/18 05:48:34;;;;;;;;;;;19.60;41.20;;;;;;5088556;28;19924;-61
2023/04/18 05:51:01;;;;;;;;;;;19.60;41.20;;;;;;5076358;28;19965;-61
2023/04/18 05:53:28;;;;;;;;;;;19.60;41.20;;;;;;5085262;28;19989;-61
2023/04/18 05:55:56;;;;;;;;;;;19.60;41.20;;;;;;5065625;28;20196;-61
2023/04/18 05:58:24;;;;;;;;;;;19.60;41.20;;;;;;5092934;28;19920;-61
2023/04/18 06:00:52;;;;;;;;;;;19.60;41.20;;;;;;5087135;28;19920;-61
2023/04/18 06:03:19;;;;;;;;;;;19.60;41.20;;;;;;5069629;28;19943;-61
2023/04/18 06:05:45;;;;;;;;;;;19.60;41.20;;;;;;5073644;28;19920;-60
2023/04/18 06:08:12;;;;;;;;;;;19.60;41.20;;;;;;5070736;28;19939;-60
2023/04/18 06:10:39;;;;;;;;;;;19.60;41.20;;;;;;5068877;28;19924;-60
2023/04/18 06:13:06;;;;;;;;;;;19.60;41.20;;;;;;5052232;28;19974;-60
2023/04/18 06:15:34;;;;;;;;;;;19.70;41.40;;;;;;5089603;28;19927;-60
2023/04/18 06:18:01;;;;;;;;;;;19.60;41.20;;;;;;5066810;28;19978;-61
2023/04/18 06:20:27;;;;;;;;;;;19.60;41.30;;;;;;5057325;28;19920;-60
2023/04/18 06:22:54;;;;;;;;;;;19.60;41.30;;;;;;5068575;28;19937;-60
2023/04/18 06:25:21;;;;;;;;;;;19.60;41.20;;;;;;5071324;28;19924;-61
2023/04/18 06:27:48;;;;;;;;;;;19.60;41.30;;;;;;5071217;28;19920;-61
2023/04/18 06:30:15;;;;;;;;;;;19.70;41.40;;;;;;5085334;28;19924;-61
2023/04/18 06:32:43;;;;;;;;;;;19.60;41.30;;;;;;5084022;28;19969;-61
2023/04/18 06:35:13;;;;;;;;;;;19.60;41.30;;;;;;5086128;28;20025;-61
2023/04/18 06:37:42;;;;;;;;;;;19.60;41.30;;;;;;5068111;28;19925;-61
2023/04/18 06:40:10;;;;;;;;;;;19.60;41.20;;;;;;5070203;28;19939;-61
2023/04/18 06:42:37;;;;;;;;;;;19.70;41.40;;;;;;5067903;28;19974;-61
2023/04/18 06:45:05;;;;;;;;;;;19.70;41.90;;;;;;5051654;28;19920;-61
2023/04/18 06:47:32;;;;;;;;;;;19.60;41.30;;;;;;5051486;28;20001;-61
2023/04/18 06:50:00;;;;;;;;;;;19.70;41.40;;;;;;5060179;28;19924;-61
2023/04/18 06:52:27;;;;;;;;;;;19.70;41.30;;;;;;5069583;28;19921;-61
2023/04/18 06:54:54;;;;;;;;;;;19.60;41.30;;;;;;5067832;28;19939;-61
2023/04/18 06:57:20;;;;;;;;;;;19.70;41.40;;;;;;5051397;28;19921;-61
2023/04/18 06:59:47;;;;;;;;;;;19.60;41.30;;;;;;5064292;28;19982;-61
2023/04/18 07:02:14;;;;;;;;;;;19.60;41.30;;;;;;5088013;28;19935;-61
2023/04/18 07:04:40;;;;;;;;;;;19.60;41.30;;;;;;5071077;28;19966;-61
2023/04/18 07:07:09;;;;;;;;;;;19.60;41.30;;;;;;5072148;28;19982;-61
2023/04/18 07:09:36;;;;;;;;;;;19.60;41.30;;;;;;5074027;28;20247;-62
2023/04/18 07:12:03;;;;;;;;;;;19.70;41.40;;;;;;5078695;28;19973;-62
2023/04/18 07:14:29;;;;;;;;;;;19.70;41.40;;;;;;5058159;28;19921;-62
2023/04/18 07:16:57;;;;;;;;;;;19.70;41.40;;;;;;5068855;28;19936;-62
2023/04/18 07:19:24;;;;;;;;;;;19.70;41.40;;;;;;5051121;28;19924;-61
2023/04/18 07:21:50;;;;;;;;;;;19.70;41.40;;;;;;5077858;28;19960;-61
2023/04/18 07:24:19;;;;;;;;;;;19.70;41.40;;;;;;5050692;28;19927;-61
2023/04/18 07:26:45;;;;;;;;;;;19.70;41.40;;;;;;5051719;28;19924;-61
2023/04/18 07:29:12;;;;;;;;;;;19.70;41.40;;;;;;5050570;28;19951;-60
2023/04/18 07:31:39;;;;;;;;;;;19.70;41.40;;;;;;5033874;28;20016;-61
2023/04/18 07:34:06;;;;;;;;;;;19.70;41.40;;;;;;5060401;28;19924;-62
2023/04/18 07:36:32;;;;;;;;;;;19.70;41.40;;;;;;5085859;28;19973;-62
2023/04/18 07:38:59;;;;;;;;;;;19.70;41.40;;;;;;5070439;28;19920;-62
2023/04/18 07:41:27;;;;;;;;;;;19.70;41.40;;;;;;5074233;28;19953;-61
2023/04/18 07:43:54;;;;;;;;;;;19.70;41.40;;;;;;5071556;28;19924;-61
2023/04/18 07:46:21;;;;;;;;;;;19.70;41.40;;;;;;5079517;28;20363;-62
2023/04/18 07:48:47;;;;;;;;;;;19.70;41.40;;;;;;5073752;28;19962;-62
2023/04/18 07:51:14;;;;;;;;;;;19.70;41.40;;;;;;5091714;28;19920;-61
2023/04/18 07:53:42;;;;;;;;;;;19.70;41.40;;;;;;5088864;28;20315;-61
2023/04/18 07:56:09;;;;;;;;;;;19.70;41.40;;;;;;5099790;28;19921;-61
2023/04/18 07:58:37;;;;;;;;;;;19.70;41.40;;;;;;5072100;28;19924;-61
2023/04/18 08:01:05;;;;;;;;;;;19.70;41.40;;;;;;5054572;28;19974;-61
2023/04/18 08:03:35;;;;;;;;;;;19.70;41.40;;;;;;5063834;28;19920;-62
2023/04/18 08:06:02;;;;;;;;;;;19.70;41.40;;;;;;5102565;28;20011;-61
2023/04/18 08:08:28;;;;;;;;;;;19.70;41.40;;;;;;5072030;28;19924;-61
2023/04/18 08:10:55;;;;;;;;;;;19.70;41.40;;;;;;5053184;28;20321;-62
2023/04/18 08:13:22;;;;;;;;;;;19.70;41.40;;;;;;5062647;28;20000;-62
2023/04/18 08:15:50;;;;;;;;;;;19.70;41.40;;;;;;5073652;28;19924;-61
2023/04/18 08:18:17;;;;;;;;;;;19.70;41.40;;;;;;5073846;28;19920;-61
2023/04/18 08:20:44;;;;;;;;;;;19.70;41.40;;;;;;5073349;28;20022;-61
2023/04/18 08:23:11;;;;;;;;;;;19.70;41.40;;;;;;5074212;28;19924;-61
2023/04/18 08:25:38;;;;;;;;;;;19.70;41.40;;;;;;5090661;28;19931;-61
2023/04/18 08:28:05;;;;;;;;;;;19.70;41.40;;;;;;5074001;28;19965;-61
2023/04/18 08:30:32;;;;;;;;;;;19.70;42.00;;;;;;5089955;28;20301;-61
2023/04/18 08:33:00;;;;;;;;;;;19.70;41.40;;;;;;5091311;28;19920;-61
2023/04/18 08:35:27;;;;;;;;;;;19.70;41.40;;;;;;5092078;28;19951;-60
2023/04/18 08:37:54;;;;;;;;;;;19.70;41.40;;;;;;5073539;28;19920;-62
2023/04/18 08:40:21;;;;;;;;;;;19.70;41.40;;;;;;5091295;28;19962;-61
2023/04/18 08:42:47;;;;;;;;;;;19.70;41.40;;;;;;5072911;28;19924;-61
2023/04/18 08:45:14;;;;;;;;;;;19.70;41.40;;;;;;5073539;28;19927;-61
2023/04/18 08:47:41;;;;;;;;;;;19.70;41.40;;;;;;5089513;28;19977;-61
2023/04/18 08:50:10;;;;;;;;;;;19.70;41.40;;;;;;5073005;28;19974;-61
2023/04/18 08:52:37;;;;;;;;;;;19.70;41.40;;;;;;5089888;28;20011;-61
2023/04/18 08:55:04;;;;;;;;;;;19.70;41.40;;;;;;5072592;28;19943;-61
2023/04/18 08:57:32;;;;;;;;;;;19.70;41.40;;;;;;5073361;28;19977;-61
2023/04/18 09:00:00;;;;;;;;;;;19.70;41.40;;;;;;5072842;28;19924;-62
2023/04/18 09:02:37;;;;;;;;;;;19.70;42.00;;;;;;5072635;28;19931;-61
2023/04/18 09:05:11;;;;;;;;;;;19.70;41.50;;;;;;5073106;28;19945;-61
2023/04/18 09:07:38;;;;;;;;;;;19.70;41.40;;;;;;5094897;28;19969;-62
2023/04/18 09:10:06;;;;;;;;;;;19.70;41.50;;;;;;5072970;28;19950;-62
2023/04/18 09:12:33;;;;;;;;;;;19.70;41.40;;;;;;5089587;28;19928;-62
2023/04/18 09:15:09;;;;;;;;;;;19.70;41.50;;;;;;5055463;28;19927;-62
2023/04/18 09:17:37;;;;;;;;;;;19.70;41.50;;;;;;5052509;28;19932;-62
2023/04/18 09:20:04;;;;;;;;;;;19.70;41.50;;;;;;5070991;28;19927;-61
2023/04/18 09:22:49;;;;;;;;;;;19.70;41.50;;;;;;5074526;28;20344;-61
2023/04/18 09:25:26;;;;;;;;;;;19.70;41.50;;;;;;5072322;28;20312;-61
2023/04/18 09:27:53;;;;;;;;;;;19.70;41.50;;;;;;5057244;28;20243;-62
2023/04/18 09:30:29;;;;;;;;;;;19.70;41.50;;;;;;5070986;28;19924;-62
2023/04/18 09:32:57;;;;;;;;;;;19.70;41.50;;;;;;5052764;28;20016;-62
2023/04/18 09:35:24;;;;;;;;;;;19.70;41.50;;;;;;5072693;28;19920;-61
2023/04/18 09:37:52;;;;;;;;;;;19.70;41.50;;;;;;5072063;28;19924;-61
2023/04/18 09:40:19;;;;;;;;;;;19.70;41.50;;;;;;5072229;28;20369;-62
2023/04/18 09:42:46;;;;;;;;;;;19.70;42.00;;;;;;5058891;28;19928;-61
2023/04/18 09:45:14;;;;;;;;;;;19.70;41.50;;;;;;5052617;28;19920;-61
2023/04/18 09:47:41;;;;;;;;;;;19.70;41.50;;;;;;5051980;28;20274;-61
2023/04/18 09:50:08;;;;;;;;;;;19.70;41.50;;;;;;5052185;28;19924;-61
2023/04/18 09:52:35;;;;;;;;;;;19.70;41.50;;;;;;5070174;28;20402;-61
2023/04/18 09:55:04;;;;;;;;;;;19.70;41.50;;;;;;5051861;28;19920;-61
2023/04/18 09:57:32;;;;;;;;;;;19.70;41.50;;;;;;5052277;28;19965;-62
2023/04/18 10:00:09;;;;;;;;;;;19.70;41.50;;;;;;5070214;28;20007;-61
2023/04/18 10:02:40;;;;;;;;;;;19.70;41.50;;;;;;5075204;28;19927;-62
2023/04/18 10:05:07;;;;;;;;;;;19.70;41.50;;;;;;5051956;28;19920;-61
2023/04/18 10:07:35;;;;;;;;;;;19.70;41.50;;;;;;5051836;28;19982;-61
2023/04/18 10:10:01;;;;;;;;;;;19.70;41.50;;;;;;5068306;28;19920;-62
2023/04/18 10:12:30;;;;;;;;;;;19.70;41.50;;;;;;5052170;28;20013;-62
2023/04/18 10:14:56;;;;;;;;;;;19.70;41.50;;;;;;5086252;28;19924;-62
2023/04/18 10:17:23;;;;;;;;;;;19.70;41.50;;;;;;5088556;28;19920;-60
2023/04/18 10:20:04;;;;;;;;;;;19.70;41.50;;;;;;5071127;28;19924;-61
2023/04/18 10:22:31;;;;;;;;;;;19.70;41.50;;;;;;5071842;28;19973;-61
2023/04/18 10:24:58;;;;;;;;;;;19.80;41.60;;;;;;5089404;28;19927;-61
2023/04/18 10:27:43;;;;;;;;;;;19.70;41.50;;;;;;5071175;28;19920;-61
2023/04/18 10:30:12;;;;;;;;;;;19.70;41.50;;;;;;5071744;28;19920;-62
2023/04/18 10:32:39;;;;;;;;;;;19.70;41.60;;;;;;5071007;28;19919;-62
2023/04/18 10:35:06;;;;;;;;;;;19.70;41.50;;;;;;5071720;28;19920;-62
2023/04/18 10:37:33;;;;;;;;;;;19.70;41.50;;;;;;5062902;28;19924;-62
2023/04/18 10:40:04;;;;;;;;;;;19.80;41.60;;;;;;5051179;28;19920;-62
2023/04/18 10:42:46;;;;;;;;;;;19.80;41.60;;;;;;5051847;28;19951;-62
2023/04/18 10:45:20;;;;;;;;;;;19.80;41.60;;;;;;5050534;28;19924;-62
2023/04/18 10:47:47;;;;;;;;;;;19.70;41.50;;;;;;5061367;28;19920;-62
2023/04/18 10:50:14;;;;;;;;;;;19.80;41.60;;;;;;5089526;28;19974;-62
2023/04/18 10:52:41;;;;;;;;;;;19.80;41.60;;;;;;5070915;28;19924;-62
2023/04/18 10:55:09;;;;;;;;;;;19.80;41.60;;;;;;5071249;28;19924;-62
2023/04/18 10:57:39;;;;;;;;;;;19.80;41.60;;;;;;5071218;28;19943;-62
2023/04/18 11:00:07;;;;;;;;;;;19.80;41.60;;;;;;5071339;28;20021;-62
2023/04/18 11:02:35;;;;;;;;;;;19.80;41.60;;;;;;5070584;28;19924;-62
2023/04/18 11:05:03;;;;;;;;;;;19.80;41.60;;;;;;5089310;28;20308;-61
2023/04/18 11:07:33;;;;;;;;;;;19.80;41.60;;;;;;5071128;28;19931;-60
2023/04/18 11:10:00;;;;;;;;;;;19.80;41.60;;;;;;5088612;28;19973;-62
2023/04/18 11:12:29;;;;;;;;;;;19.80;41.60;;;;;;5102709;28;20027;-62
2023/04/18 11:14:56;;;;;;;;;;;19.80;41.60;;;;;;5055908;28;19921;-62
2023/04/18 11:17:23;;;;;;;;;;;19.80;41.60;;;;;;5073231;28;19920;-62
2023/04/18 11:19:53;;;;;;;;;;;19.80;41.60;;;;;;5070860;28;19921;-61
2023/04/18 11:22:19;;;;;;;;;;;19.80;41.60;;;;;;5054241;28;19920;-62
2023/04/18 11:24:46;;;;;;;;;;;19.80;41.60;;;;;;5071964;28;20276;-62
2023/04/18 11:27:13;;;;;;;;;;;19.80;41.60;;;;;;5073198;28;19925;-61
2023/04/18 11:29:40;;;;;;;;;;;19.80;41.60;;;;;;5054643;28;19966;-61
2023/04/18 11:32:07;;;;;;;;;;;19.80;41.60;;;;;;5054884;28;19932;-61
2023/04/18 11:34:34;;;;;;;;;;;19.80;41.60;;;;;;5086038;28;19974;-61
2023/04/18 11:37:05;;;;;;;;;;;19.80;41.60;;;;;;5074117;28;20024;-61
2023/04/18 11:39:33;;;;;;;;;;;19.80;41.60;;;;;;5071360;28;19925;-61
2023/04/18 11:42:00;;;;;;;;;;;19.80;41.60;;;;;;5054810;28;19920;-61
2023/04/18 11:44:27;;;;;;;;;;;19.80;41.70;;;;;;5054584;28;19920;-61
2023/04/18 11:46:54;;;;;;;;;;;19.80;41.60;;;;;;5072713;28;19921;-62
2023/04/18 11:49:24;;;;;;;;;;;19.80;41.60;;;;;;5054474;28;19928;-62
2023/04/18 11:51:52;;;;;;;;;;;19.80;41.70;;;;;;5054842;28;19927;-62
2023/04/18 11:54:39;;;;;;;;;;;19.80;41.70;;;;;;5054641;28;19924;-62
2023/04/18 11:57:18;;;;;;;;;;;19.80;41.60;;;;;;5054763;28;19921;-62
2023/04/18 11:59:48;;;;;;;;;;;19.80;41.70;;;;;;5070295;28;19932;-62
2023/04/18 12:02:14;;;;;;;;;;;19.80;41.70;;;;;;5055065;28;19950;-62
2023/04/18 12:04:50;;;;;;;;;;;19.80;41.70;;;;;;5074519;28;19927;-61
2023/04/18 12:07:29;;;;;;;;;;;19.80;41.70;;;;;;5074769;28;19926;-61
2023/04/18 12:09:57;;;;;;;;;;;19.80;41.70;;;;;;5090581;28;19920;-61
2023/04/18 12:12:24;;;;;;;;;;;19.80;41.60;;;;;;5091180;28;20410;-61
2023/04/18 12:14:57;;;;;;;;;;;19.80;41.70;;;;;;5094757;28;19942;-61
2023/04/18 12:17:25;;;;;;;;;;;19.80;41.70;;;;;;5073849;28;19920;-61
2023/04/18 12:19:53;;;;;;;;;;;19.80;41.70;;;;;;5073322;28;19920;-61
2023/04/18 12:22:22;;;;;;;;;;;19.80;41.70;;;;;;5074035;28;19928;-61
2023/04/18 12:25:04;;;;;;;;;;;19.80;41.70;;;;;;5072859;28;19920;-62
2023/04/18 12:27:45;;;;;;;;;;;19.80;41.70;;;;;;5073169;28;19920;-61
2023/04/18 12:30:15;;;;;;;;;;;19.80;41.70;;;;;;5090726;28;19920;-62
2023/04/18 12:32:43;;;;;;;;;;;19.80;41.70;;;;;;5090072;28;19927;-62
2023/04/18 12:35:10;;;;;;;;;;;19.80;41.70;;;;;;5091840;28;20374;-62
2023/04/18 12:37:37;;;;;;;;;;;19.80;41.70;;;;;;5071152;28;19969;-61
2023/04/18 12:40:04;;;;;;;;;;;19.80;41.70;;;;;;5053160;28;19980;-62
2023/04/18 12:42:32;;;;;;;;;;;19.80;41.70;;;;;;5073124;28;19920;-62
2023/04/18 12:45:02;;;;;;;;;;;19.80;41.70;;;;;;5073102;28;19927;-61
2023/04/18 12:47:30;;;;;;;;;;;19.80;41.70;;;;;;5089935;28;19931;-61
2023/04/18 12:49:57;;;;;;;;;;;19.80;41.70;;;;;;5073087;28;19920;-61
2023/04/18 12:52:23;;;;;;;;;;;19.80;41.70;;;;;;5090167;28;20002;-61
2023/04/18 12:54:50;;;;;;;;;;;19.80;41.70;;;;;;5091173;28;19959;-61
2023/04/18 12:57:17;;;;;;;;;;;19.80;41.70;;;;;;5090563;28;19973;-61
2023/04/18 12:59:44;;;;;;;;;;;19.80;41.70;;;;;;5090679;28;19924;-62
2023/04/18 13:02:11;;;;;;;;;;;19.80;41.70;;;;;;5073021;28;19956;-61
2023/04/18 13:04:39;;;;;;;;;;;19.80;41.70;;;;;;5106723;28;19970;-62
2023/04/18 13:07:06;;;;;;;;;;;19.80;41.70;;;;;;5091756;28;19920;-61
2023/04/18 13:09:33;;;;;;;;;;;19.80;41.70;;;;;;5106030;28;19920;-61
2023/04/18 13:12:00;;;;;;;;;;;19.80;41.70;;;;;;5072908;28;19923;-61
2023/04/18 13:14:27;;;;;;;;;;;19.80;41.70;;;;;;5086220;28;20247;-62
2023/04/18 13:16:54;;;;;;;;;;;19.80;41.70;;;;;;5052655;28;19928;-62
2023/04/18 13:19:21;;;;;;;;;;;19.80;41.70;;;;;;5053129;28;19920;-62
2023/04/18 13:21:49;;;;;;;;;;;19.80;41.70;;;;;;5070433;28;20275;-62
2023/04/18 13:24:16;;;;;;;;;;;19.80;41.70;;;;;;5052512;28;20027;-61
2023/04/18 13:26:43;;;;;;;;;;;19.80;41.80;;;;;;5069263;28;19928;-61
2023/04/18 13:29:10;;;;;;;;;;;19.80;41.70;;;;;;5082002;28;19928;-61
2023/04/18 13:31:36;;;;;;;;;;;19.80;41.80;;;;;;5072549;28;20270;-61
2023/04/18 13:34:03;;;;;;;;;;;19.90;41.80;;;;;;5071594;28;20401;-61
2023/04/18 13:36:33;;;;;;;;;;;19.80;41.70;;;;;;5090592;28;19931;-61
2023/04/18 13:39:03;;;;;;;;;;;19.80;41.70;;;;;;5061057;28;19959;-61
2023/04/18 13:41:30;;;;;;;;;;;19.80;41.70;;;;;;5069202;28;19929;-61
2023/04/18 13:43:56;;;;;;;;;;;19.80;41.70;;;;;;5070046;28;19920;-61
2023/04/18 13:46:25;;;;;;;;;;;19.80;41.70;;;;;;5069977;28;19966;-61
2023/04/18 13:48:52;;;;;;;;;;;19.80;41.70;;;;;;5074253;28;19974;-61
2023/04/18 13:51:18;;;;;;;;;;;19.80;42.40;;;;;;5070688;28;19924;-61
2023/04/18 13:53:45;;;;;;;;;;;19.80;41.70;;;;;;5069590;28;20289;-61
2023/04/18 13:56:14;;;;;;;;;;;19.80;41.70;;;;;;5069126;28;19920;-61
2023/04/18 13:58:41;;;;;;;;;;;19.80;41.80;;;;;;5051781;28;19946;-61
2023/04/18 14:01:07;;;;;;;;;;;19.80;41.80;;;;;;5052496;28;19924;-61
2023/04/18 14:03:34;;;;;;;;;;;19.80;41.80;;;;;;5051695;28;19947;-62
2023/04/18 14:06:01;;;;;;;;;;;19.80;41.80;;;;;;5051753;28;19920;-62
2023/04/18 14:08:28;;;;;;;;;;;19.80;41.80;;;;;;5052258;28;19928;-62
2023/04/18 14:10:55;;;;;;;;;;;19.80;41.80;;;;;;5051632;28;19921;-62
2023/04/18 14:13:23;;;;;;;;;;;19.80;41.70;;;;;;5055361;28;19924;-62
2023/04/18 14:15:49;;;;;;;;;;;19.80;41.80;;;;;;5071777;28;19920;-62
2023/04/18 14:18:20;;;;;;;;;;;19.80;41.80;;;;;;5105214;28;19920;-62
2023/04/18 14:20:47;;;;;;;;;;;19.80;41.80;;;;;;5071465;28;20247;-62